createdAt,value
2023-01-13T00:00:09.473Z,100552.50
2023-01-13T00:02:44.897Z,100553.38
2023-01-13T00:05:17.036Z,100553.38
2023-01-13T00:07:49.804Z,100552.55
2023-01-13T00:10:23.340Z,100562.82
2023-01-13T00:12:55.257Z,100569.70
2023-01-13T00:15:27.333Z,100562.95
2023-01-13T00:17:59.456Z,100556.05
2023-01-13T00:20:31.419Z,100553.48
2023-01-13T00:23:04.624Z,100553.48
2023-01-13T00:25:36.598Z,100543.23
2023-01-13T00:28:40.444Z,100539.85
2023-01-13T00:31:15.873Z,100545.84
2023-01-13T00:33:51.323Z,100553.56
2023-01-13T00:36:23.937Z,100552.79
2023-01-13T00:38:56.795Z,100550.12
2023-01-13T00:41:31.019Z,100548.45
2023-01-13T00:44:04.318Z,100540.67
2023-01-13T00:46:38.165Z,100550.97
2023-01-13T00:49:15.292Z,100550.97
2023-01-13T00:51:47.920Z,100551.02
2023-01-13T00:54:20.270Z,100547.65
2023-01-13T00:56:52.769Z,100539.16
2023-01-13T00:59:26.320Z,100535.64
2023-01-13T01:02:00.389Z,100522.80
2023-01-13T01:04:33.217Z,100529.61
2023-01-13T01:07:06.173Z,100525.36
2023-01-13T01:09:39.752Z,100526.45
2023-01-13T01:12:12.507Z,100510.84
2023-01-13T01:14:45.717Z,100500.66
2023-01-13T01:17:18.852Z,100497.98
2023-01-13T01:19:51.119Z,100493.70
2023-01-13T01:22:23.563Z,100495.45
2023-01-13T01:24:56.029Z,100487.72
2023-01-13T01:27:28.673Z,100494.62
2023-01-13T01:30:01.007Z,100495.52
2023-01-13T01:32:35.990Z,100493.77
2023-01-13T01:35:09.870Z,100503.23
2023-01-13T01:37:42.103Z,100495.52
2023-01-13T01:40:14.951Z,100496.44
2023-01-13T01:43:04.679Z,100492.10
2023-01-13T01:45:37.039Z,100494.70
2023-01-13T01:48:10.490Z,100486.12
2023-01-13T01:50:42.610Z,100487.84
2023-01-13T01:53:17.874Z,100472.42
2023-01-13T01:55:50.198Z,100462.15
2023-01-13T01:58:25.138Z,100462.97
2023-01-13T02:00:58.081Z,100452.70
2023-01-13T02:03:31.263Z,100446.80
2023-01-13T02:06:04.198Z,100449.30
2023-01-13T02:08:38.628Z,100453.63
2023-01-13T02:11:15.338Z,100439.17
2023-01-13T02:13:47.973Z,100445.14
2023-01-13T02:16:23.273Z,100444.36
2023-01-13T02:19:04.325Z,100449.42
2023-01-13T02:21:57.990Z,100431.42
2023-01-13T02:24:54.991Z,100433.16
2023-01-13T02:27:54.760Z,100431.51
2023-01-13T02:31:03.161Z,100440.02
2023-01-13T02:33:44.737Z,100440.91
2023-01-13T02:36:28.759Z,100444.34
2023-01-13T02:39:13.011Z,100440.11
2023-01-13T02:42:17.568Z,100440.92
2023-01-13T02:45:08.498Z,100453.80
2023-01-13T02:47:44.623Z,100452.94
2023-01-13T02:50:23.403Z,100456.34
2023-01-13T02:53:15.576Z,100463.19
2023-01-13T02:55:53.723Z,100463.09
2023-01-13T02:58:32.518Z,100454.53
2023-01-13T03:01:05.272Z,100454.53
2023-01-13T03:03:38.486Z,100463.09
2023-01-13T03:06:30.259Z,100453.70
2023-01-13T03:09:14.303Z,100453.70
2023-01-13T03:12:05.800Z,100456.30
2023-01-13T03:14:49.727Z,100452.88
2023-01-13T03:17:24.791Z,100451.19
2023-01-13T03:20:08.238Z,100443.53
2023-01-13T03:22:43.468Z,100431.51
2023-01-13T03:25:21.204Z,100428.13
2023-01-13T03:28:02.310Z,100427.28
2023-01-13T03:30:43.590Z,100426.44
2023-01-13T03:33:22.753Z,100437.56
2023-01-13T03:35:58.047Z,100442.69
2023-01-13T03:38:35.578Z,100444.44
2023-01-13T03:41:14.352Z,100431.55
2023-01-13T03:44:06.807Z,100433.22
2023-01-13T03:46:41.719Z,100429.00
2023-01-13T03:49:16.786Z,100434.98
2023-01-13T03:51:53.763Z,100432.41
2023-01-13T03:54:29.052Z,100436.66
2023-01-13T03:57:07.002Z,100429.83
2023-01-13T03:59:42.268Z,100451.34
2023-01-13T04:02:32.578Z,100441.88
2023-01-13T04:05:07.297Z,100453.83
2023-01-13T04:07:42.335Z,100452.11
2023-01-13T04:10:17.330Z,100457.22
2023-01-13T04:13:01.056Z,100457.18
2023-01-13T04:15:39.260Z,100451.23
2023-01-13T04:18:26.348Z,100449.50
2023-01-13T04:21:01.800Z,100446.87
2023-01-13T04:23:34.200Z,100446.87
2023-01-13T04:26:07.906Z,100449.48
2023-01-13T04:28:41.072Z,100442.58
2023-01-13T04:31:13.185Z,100444.45
2023-01-13T04:33:45.195Z,100458.05
2023-01-13T04:36:17.945Z,100452.05
2023-01-13T04:38:51.260Z,100452.97
2023-01-13T04:41:24.256Z,100453.77
2023-01-13T04:43:56.734Z,100455.47
2023-01-13T04:46:29.425Z,100455.53
2023-01-13T04:49:01.935Z,100446.91
2023-01-13T04:51:34.439Z,100448.61
2023-01-13T04:54:07.070Z,100440.06
2023-01-13T04:56:40.392Z,100452.90
2023-01-13T04:59:14.769Z,100449.52
2023-01-13T05:01:47.305Z,100446.08
2023-01-13T05:04:23.001Z,100450.39
2023-01-13T05:06:55.551Z,100447.80
2023-01-13T05:09:32.190Z,100460.64
2023-01-13T05:12:23.361Z,100464.09
2023-01-13T05:15:15.391Z,100463.36
2023-01-13T05:17:48.661Z,100469.26
2023-01-13T05:20:22.072Z,100467.47
2023-01-13T05:23:13.064Z,100473.51
2023-01-13T05:25:49.900Z,100476.03
2023-01-13T05:28:22.975Z,100492.27
2023-01-13T05:30:55.500Z,100472.63
2023-01-13T05:33:29.572Z,100477.11
2023-01-13T05:36:03.742Z,100476.11
2023-01-13T05:38:40.037Z,100477.87
2023-01-13T05:41:31.002Z,100474.44
2023-01-13T05:44:07.928Z,100480.38
2023-01-13T05:46:42.847Z,100479.58
2023-01-13T05:49:16.284Z,100481.19
2023-01-13T05:51:51.979Z,100475.20
2023-01-13T05:54:26.752Z,100479.48
2023-01-13T05:57:01.882Z,100475.24
2023-01-13T05:59:36.205Z,100479.48
2023-01-13T06:02:12.494Z,100474.34
2023-01-13T06:04:46.662Z,100469.26
2023-01-13T06:07:21.951Z,100470.13
2023-01-13T06:09:54.529Z,100474.44
2023-01-13T06:12:30.429Z,100462.41
2023-01-13T06:15:09.674Z,100464.97
2023-01-13T06:17:45.379Z,100461.55
2023-01-13T06:20:20.696Z,100464.97
2023-01-13T06:22:57.652Z,100463.31
2023-01-13T06:25:50.769Z,100460.79
2023-01-13T06:28:25.833Z,100474.49
2023-01-13T06:31:03.820Z,100471.16
2023-01-13T06:33:43.082Z,100463.44
2023-01-13T06:36:25.962Z,100462.55
2023-01-13T06:39:04.740Z,100462.55
2023-01-13T06:41:45.720Z,100453.12
2023-01-13T06:44:23.698Z,100464.36
2023-01-13T06:46:56.763Z,100461.83
2023-01-13T06:49:31.345Z,100459.27
2023-01-13T06:52:10.393Z,100462.64
2023-01-13T06:54:49.321Z,100460.09
2023-01-13T06:57:26.821Z,100457.53
2023-01-13T07:00:05.857Z,100459.28
2023-01-13T07:02:40.726Z,100448.18
2023-01-13T07:05:15.974Z,100455.01
2023-01-13T07:07:49.069Z,100454.17
2023-01-13T07:10:24.269Z,100461.05
2023-01-13T07:13:26.361Z,100455.20
2023-01-13T07:16:31.383Z,100453.48
2023-01-13T07:19:08.193Z,100458.58
2023-01-13T07:21:46.260Z,100461.16
2023-01-13T07:24:26.151Z,100457.81
2023-01-13T07:27:04.972Z,100466.41
2023-01-13T07:29:43.995Z,100469.88
2023-01-13T07:32:19.157Z,100473.31
2023-01-13T07:34:53.396Z,100469.92
2023-01-13T07:37:29.203Z,100481.09
2023-01-13T07:40:06.664Z,100477.66
2023-01-13T07:43:02.704Z,100482.75
2023-01-13T07:45:38.195Z,100483.58
2023-01-13T07:48:18.835Z,100491.30
2023-01-13T07:50:54.003Z,100497.38
2023-01-13T07:53:28.683Z,100487.05
2023-01-13T07:56:07.134Z,100487.08
2023-01-13T07:58:40.180Z,100479.46
2023-01-13T08:01:15.286Z,100481.95
2023-01-13T08:03:51.234Z,100492.26
2023-01-13T08:06:29.125Z,100484.60
2023-01-13T08:09:11.781Z,100478.60
2023-01-13T08:16:33.741Z,100471.80
2023-01-13T08:19:06.239Z,100472.77
2023-01-13T08:21:38.357Z,100479.59
2023-01-13T08:24:12.254Z,100482.11
2023-01-13T08:26:43.922Z,100472.64
2023-01-13T08:29:15.811Z,100485.59
2023-01-13T08:31:48.071Z,100484.70
2023-01-13T08:34:20.255Z,100480.39
2023-01-13T08:36:52.819Z,100484.73
2023-01-13T08:39:26.084Z,100480.43
2023-01-13T08:41:59.111Z,100490.75
2023-01-13T08:44:33.039Z,100495.91
2023-01-13T08:47:05.184Z,100482.18
2023-01-13T08:49:37.031Z,100479.77
2023-01-13T08:52:09.243Z,100472.80
2023-01-13T08:54:42.543Z,100472.78
2023-01-13T08:57:17.423Z,100477.10
2023-01-13T08:59:49.750Z,100473.70
2023-01-13T09:02:23.865Z,100462.58
2023-01-13T09:04:56.110Z,100461.70
2023-01-13T09:07:28.488Z,100461.70
2023-01-13T09:10:01.530Z,100462.59
2023-01-13T09:12:51.400Z,100464.33
2023-01-13T09:15:23.750Z,100461.77
2023-01-13T09:17:56.118Z,100461.73
2023-01-13T09:20:28.205Z,100443.69
2023-01-13T09:22:59.988Z,100444.56
2023-01-13T09:25:33.179Z,100447.13
2023-01-13T09:28:06.133Z,100448.86
2023-01-13T09:30:39.047Z,100445.42
2023-01-13T09:33:29.313Z,100442.02
2023-01-13T09:36:02.108Z,100450.63
2023-01-13T09:38:35.109Z,100442.89
2023-01-13T09:41:09.404Z,100442.06
2023-01-13T09:43:54.310Z,100437.76
2023-01-13T09:46:44.248Z,100439.42
2023-01-13T09:49:23.152Z,100432.58
2023-01-13T09:51:58.132Z,100430.89
2023-01-13T09:54:42.007Z,100426.55
2023-01-13T09:57:16.471Z,100425.66
2023-01-13T09:59:48.903Z,100426.57
2023-01-13T10:02:32.926Z,100436.84
2023-01-13T10:05:05.889Z,100430.81
2023-01-13T10:07:40.244Z,100440.36
2023-01-13T10:10:15.270Z,100435.98
2023-01-13T10:13:08.357Z,100444.56
2023-01-13T10:15:46.569Z,100444.59
2023-01-13T10:18:24.711Z,100433.45
2023-01-13T10:21:02.376Z,100438.61
2023-01-13T10:23:41.024Z,100448.05
2023-01-13T10:26:25.454Z,100454.05
2023-01-13T10:28:58.516Z,100444.59
2023-01-13T10:31:30.887Z,100442.02
2023-01-13T10:34:04.811Z,100442.84
2023-01-13T10:36:36.872Z,100441.95
2023-01-13T10:39:11.688Z,100441.95
2023-01-13T10:41:44.801Z,100431.65
2023-01-13T10:44:20.022Z,100440.27
2023-01-13T10:46:58.056Z,100435.12
2023-01-13T10:49:38.910Z,100432.55
2023-01-13T10:52:29.120Z,100430.89
2023-01-13T10:55:01.681Z,100426.59
2023-01-13T10:57:36.593Z,100436.07
2023-01-13T11:00:11.653Z,100435.23
2023-01-13T11:02:44.023Z,100432.64
2023-01-13T11:05:24.886Z,100436.09
2023-01-13T11:07:58.121Z,100438.66
2023-01-13T11:10:33.592Z,100442.07
2023-01-13T11:13:18.387Z,100437.77
2023-01-13T11:16:08.546Z,100443.79
2023-01-13T11:19:05.669Z,100435.21
2023-01-13T11:21:40.709Z,100445.52
2023-01-13T11:24:50.083Z,100441.25
2023-01-13T11:27:27.137Z,100440.37
2023-01-13T11:30:25.983Z,100434.38
2023-01-13T11:33:12.899Z,100432.66
2023-01-13T11:35:50.699Z,100442.93
2023-01-13T11:38:28.888Z,100448.08
2023-01-13T11:41:04.234Z,100452.37
2023-01-13T11:44:13.113Z,100442.94
2023-01-13T11:46:54.770Z,100454.05
2023-01-13T11:49:32.996Z,100451.48
2023-01-13T11:52:25.322Z,100462.64
2023-01-13T11:55:23.004Z,100464.36
2023-01-13T11:58:17.082Z,100455.77
2023-01-13T12:00:58.455Z,100459.20
2023-01-13T12:03:48.147Z,100460.07
2023-01-13T12:06:41.184Z,100460.91
2023-01-13T12:09:18.723Z,100460.04
2023-01-13T12:12:17.770Z,100452.33
2023-01-13T12:15:15.231Z,100460.07
2023-01-13T12:18:09.891Z,100457.47
2023-01-13T12:20:58.819Z,100460.84
2023-01-13T12:24:03.836Z,100466.09
2023-01-13T12:26:39.158Z,100471.13
2023-01-13T12:29:19.113Z,100463.36
2023-01-13T12:31:52.567Z,100462.48
2023-01-13T12:34:48.617Z,100470.14
2023-01-13T12:37:38.765Z,100466.72
2023-01-13T12:40:28.067Z,100470.11
2023-01-13T12:43:35.037Z,100466.72
2023-01-13T12:46:25.088Z,100476.98
2023-01-13T12:49:05.778Z,100465.78
2023-01-13T12:51:40.337Z,100472.68
2023-01-13T12:54:43.816Z,100467.52
2023-01-13T12:57:23.829Z,100473.52
2023-01-13T13:00:07.473Z,100473.48
2023-01-13T13:02:41.324Z,100476.09
2023-01-13T13:05:25.319Z,100478.59
2023-01-13T13:08:16.518Z,100474.30
2023-01-13T13:11:07.744Z,100481.99
2023-01-13T13:13:45.369Z,100475.95
2023-01-13T13:16:29.871Z,100474.23
2023-01-13T13:19:23.215Z,100480.24
2023-01-13T13:22:18.053Z,100475.94
2023-01-13T13:24:58.844Z,100488.79
2023-01-13T13:27:44.541Z,100491.37
2023-01-13T13:30:20.473Z,100481.09
2023-01-13T13:33:15.920Z,100491.53
2023-01-13T13:36:06.174Z,100488.03
2023-01-13T13:39:27.713Z,100487.17
2023-01-13T13:42:22.927Z,100485.45
2023-01-13T13:45:14.674Z,100491.41
2023-01-13T13:47:47.452Z,100503.44
2023-01-13T13:50:39.284Z,100502.56
2023-01-13T13:53:11.499Z,100505.15
2023-01-13T13:55:46.529Z,100506.87
2023-01-13T13:58:19.755Z,100500.87
2023-01-13T14:00:54.237Z,100505.19
2023-01-13T14:03:28.771Z,100508.66
2023-01-13T14:06:03.429Z,100502.64
2023-01-13T14:08:39.100Z,100497.55
2023-01-13T14:11:33.592Z,100506.06
2023-01-13T14:14:07.810Z,100500.03
2023-01-13T14:16:40.798Z,100502.60
2023-01-13T14:19:36.371Z,100500.14
2023-01-13T14:22:09.946Z,100500.03
2023-01-13T14:24:47.310Z,100497.46
2023-01-13T14:27:20.685Z,100494.11
2023-01-13T14:29:58.315Z,100505.23
2023-01-13T14:32:36.716Z,100502.64
2023-01-13T14:35:10.735Z,100500.91
2023-01-13T14:37:44.344Z,100506.94
2023-01-13T14:40:40.099Z,100496.68
2023-01-13T14:43:18.099Z,100501.78
2023-01-13T14:45:59.591Z,100507.78
2023-01-13T14:48:36.058Z,100500.92
2023-01-13T14:51:11.529Z,100503.52
2023-01-13T14:53:47.205Z,100505.25
2023-01-13T14:56:42.619Z,100506.92
2023-01-13T14:59:38.755Z,100506.11
2023-01-13T15:02:30.399Z,100506.94
2023-01-13T15:05:23.221Z,100507.81
2023-01-13T15:08:14.157Z,100502.70
2023-01-13T15:11:00.738Z,100512.14
2023-01-13T15:13:48.465Z,100506.16
2023-01-13T15:16:25.288Z,100510.45
2023-01-13T15:18:59.071Z,100506.16
2023-01-13T15:21:31.102Z,100505.33
2023-01-13T15:24:03.089Z,100509.65
2023-01-13T15:26:36.058Z,100504.47
2023-01-13T15:29:11.460Z,100507.09
2023-01-13T15:31:45.488Z,100500.25
2023-01-13T15:34:17.622Z,100499.41
2023-01-13T15:36:49.972Z,100500.23
2023-01-13T15:39:22.269Z,100497.68
2023-01-13T15:42:12.080Z,100488.23
2023-01-13T15:45:01.927Z,100494.27
2023-01-13T15:47:34.162Z,100485.67
2023-01-13T15:50:06.554Z,100485.67
2023-01-13T15:52:38.948Z,100489.98
2023-01-13T15:55:11.905Z,100491.70
2023-01-13T15:57:49.655Z,100493.45
2023-01-13T16:00:23.586Z,100496.03
2023-01-13T16:02:55.838Z,100496.03
2023-01-13T16:05:27.917Z,100495.21
2023-01-13T16:08:00.289Z,100487.49
2023-01-13T16:10:32.475Z,100479.80
2023-01-13T16:13:04.777Z,100487.49
2023-01-13T16:15:37.485Z,100480.62
2023-01-13T16:18:10.972Z,100479.77
2023-01-13T16:20:43.951Z,100473.79
2023-01-13T16:23:16.280Z,100477.20
2023-01-13T16:25:48.411Z,100475.48
2023-01-13T16:28:22.780Z,100475.52
2023-01-13T16:30:55.153Z,100481.66
2023-01-13T16:33:28.370Z,100472.16
2023-01-13T16:36:10.891Z,100480.75
2023-01-13T16:38:34.044Z,100470.45
2023-01-13T16:41:07.328Z,100483.36
2023-01-13T16:43:40.401Z,100479.92
2023-01-13T16:46:24.020Z,100477.35
2023-01-13T16:48:59.454Z,100481.61
2023-01-13T16:51:31.648Z,100485.05
2023-01-13T16:54:04.056Z,100483.33
2023-01-13T16:56:37.601Z,100479.01
2023-01-13T16:59:12.179Z,100479.85
2023-01-13T17:01:48.679Z,100470.42
2023-01-13T17:04:23.670Z,100479.87
2023-01-13T17:07:08.515Z,100478.14
2023-01-13T17:09:40.746Z,100477.30
2023-01-13T17:12:12.597Z,100476.44
2023-01-13T17:14:44.701Z,100479.01
2023-01-13T17:17:22.985Z,100471.30
2023-01-13T17:19:55.383Z,100479.01
2023-01-13T17:22:27.997Z,100479.85
2023-01-13T17:25:00.423Z,100484.98
2023-01-13T17:27:33.376Z,100483.25
2023-01-13T17:30:06.266Z,100484.13
2023-01-13T17:32:38.599Z,100476.42
2023-01-13T17:35:12.950Z,100478.16
2023-01-13T17:37:45.380Z,100471.30
2023-01-13T17:40:17.706Z,100482.50
2023-01-13T17:42:49.645Z,100477.30
2023-01-13T17:45:21.838Z,100481.58
2023-01-13T17:48:02.171Z,100482.47
2023-01-13T17:50:35.107Z,100474.77
2023-01-13T17:53:07.048Z,100479.93
2023-01-13T17:55:39.074Z,100484.22
2023-01-13T17:58:11.613Z,100488.53
2023-01-13T18:00:44.524Z,100486.80
2023-01-13T18:03:17.351Z,100480.80
2023-01-13T18:05:49.568Z,100492.80
2023-01-13T18:08:23.159Z,100489.36
2023-01-13T18:10:56.716Z,100491.09
2023-01-13T18:13:28.697Z,100493.66
2023-01-13T18:16:05.119Z,100478.11
2023-01-13T18:18:38.111Z,100503.08
2023-01-13T18:21:42.259Z,100496.19
2023-01-13T18:24:34.549Z,100485.91
2023-01-13T18:27:22.657Z,100489.36
2023-01-13T18:29:59.801Z,100482.48
2023-01-13T18:32:34.921Z,100480.75
2023-01-13T18:35:10.578Z,100484.19
2023-01-13T18:37:43.204Z,100484.22
2023-01-13T18:40:15.362Z,100479.04
2023-01-13T18:42:55.065Z,100484.19
2023-01-13T18:45:29.593Z,100485.91
2023-01-13T18:48:04.383Z,100481.61
2023-01-13T18:50:36.470Z,100482.50
2023-01-13T18:53:08.313Z,100484.23
2023-01-13T18:55:40.296Z,100483.36
2023-01-13T18:58:12.978Z,100485.09
2023-01-13T19:00:45.123Z,100488.48
2023-01-13T19:03:18.670Z,100488.48
2023-01-13T19:05:50.611Z,100493.66
2023-01-13T19:08:23.044Z,100491.08
2023-01-13T19:10:56.331Z,100481.63
2023-01-13T19:13:28.456Z,100488.50
2023-01-13T19:16:08.279Z,100496.22
2023-01-13T19:18:40.161Z,100485.07
2023-01-13T19:21:12.777Z,100489.39
2023-01-13T19:23:44.691Z,100485.07
2023-01-13T19:26:16.763Z,100485.07
2023-01-13T19:28:50.498Z,100483.38
2023-01-13T19:31:22.971Z,100479.97
2023-01-13T19:33:55.384Z,100480.84
2023-01-13T19:36:27.462Z,100487.72
2023-01-13T19:38:59.447Z,100482.59
2023-01-13T19:41:49.287Z,100484.33
2023-01-13T19:44:38.579Z,100481.73
2023-01-13T19:47:10.520Z,100492.03
2023-01-13T19:49:42.718Z,100486.88
2023-01-13T19:52:14.840Z,100485.18
2023-01-13T19:54:48.168Z,100494.60
2023-01-13T19:57:20.916Z,100487.74
2023-01-13T19:59:52.704Z,100479.17
2023-01-13T20:02:31.663Z,100491.22
2023-01-13T20:05:06.299Z,100482.64
2023-01-13T20:07:38.423Z,100488.66
2023-01-13T20:10:10.942Z,100489.53
2023-01-13T20:12:42.959Z,100492.96
2023-01-13T20:15:15.033Z,100489.53
2023-01-13T20:17:47.142Z,100498.98
2023-01-13T20:20:20.574Z,100480.97
2023-01-13T20:22:52.768Z,100477.52
2023-01-13T20:25:25.745Z,100477.52
2023-01-13T20:27:58.967Z,100489.55
2023-01-13T20:30:30.994Z,100487.81
2023-01-13T20:33:03.019Z,100495.55
2023-01-13T20:35:35.047Z,100495.55
2023-01-13T20:38:07.229Z,100500.69
2023-01-13T20:40:39.399Z,100492.11
2023-01-13T20:43:11.383Z,100498.16
2023-01-13T20:45:43.584Z,100489.57
2023-01-13T20:48:15.909Z,100484.42
2023-01-13T20:50:50.866Z,100490.44
2023-01-13T20:53:23.096Z,100486.14
2023-01-13T20:55:55.228Z,100489.59
2023-01-13T20:58:27.420Z,100496.47
2023-01-13T21:01:02.670Z,100497.33
2023-01-13T21:03:34.914Z,100489.59
2023-01-13T21:06:07.073Z,100490.49
2023-01-13T21:08:39.221Z,100481.88
2023-01-13T21:11:13.354Z,100491.34
2023-01-13T21:14:12.134Z,100485.34
2023-01-13T21:16:44.040Z,100481.89
2023-01-13T21:19:16.028Z,100488.77
2023-01-13T21:21:49.018Z,100481.92
2023-01-13T21:24:20.969Z,100475.93
2023-01-13T21:26:54.495Z,100475.06
2023-01-13T21:29:26.741Z,100465.62
2023-01-13T21:31:59.281Z,100462.19
2023-01-13T21:34:33.066Z,100463.04
2023-01-13T21:37:05.598Z,100461.31
2023-01-13T21:39:37.561Z,100466.47
2023-01-13T21:42:28.252Z,100469.05
2023-01-13T21:45:18.308Z,100469.05
2023-01-13T21:47:50.790Z,100474.20
2023-01-13T21:50:28.262Z,100479.36
2023-01-13T21:53:00.318Z,100481.08
2023-01-13T21:55:33.035Z,100474.20
2023-01-13T21:58:13.991Z,100469.06
2023-01-13T22:00:49.316Z,100477.62
2023-01-13T22:03:20.370Z,100463.93
2023-01-13T22:05:56.968Z,100457.91
2023-01-13T22:08:29.294Z,100463.06
2023-01-13T22:11:03.786Z,100457.91
2023-01-13T22:13:53.571Z,100465.64
2023-01-13T22:16:25.648Z,100466.50
2023-01-13T22:18:57.693Z,100460.51
2023-01-13T22:21:29.669Z,100459.66
2023-01-13T22:24:02.041Z,100449.34
2023-01-13T22:26:34.782Z,100453.64
2023-01-13T22:29:06.961Z,100443.34
2023-01-13T22:31:39.960Z,100457.97
2023-01-13T22:34:13.891Z,100454.52
2023-01-13T22:36:45.153Z,100462.27
2023-01-13T22:39:16.851Z,100459.75
2023-01-13T22:41:49.302Z,100464.86
2023-01-13T22:44:21.962Z,100460.55
2023-01-13T22:46:54.034Z,100470.01
2023-01-13T22:49:26.853Z,100469.13
2023-01-13T22:51:58.932Z,100472.59
2023-01-13T22:54:31.119Z,100466.58
2023-01-13T22:57:03.099Z,100469.16
2023-01-13T22:59:34.982Z,100469.16
2023-01-13T23:02:06.985Z,100461.41
2023-01-13T23:04:39.073Z,100458.00
2023-01-13T23:07:11.070Z,100466.58
2023-01-13T23:09:42.902Z,100457.16
2023-01-13T23:12:15.159Z,100469.19
2023-01-13T23:14:47.566Z,100462.30
2023-01-13T23:17:19.457Z,100457.17
2023-01-13T23:19:51.372Z,100458.88
2023-01-13T23:22:23.377Z,100458.88
2023-01-13T23:24:55.763Z,100453.75
2023-01-13T23:27:27.839Z,100463.19
2023-01-13T23:29:59.954Z,100462.34
2023-01-13T23:32:35.429Z,100456.31
2023-01-13T23:35:07.893Z,100454.64
2023-01-13T23:37:39.933Z,100468.38
2023-01-13T23:40:13.691Z,100462.35
2023-01-13T23:42:45.730Z,100458.07
2023-01-13T23:45:18.002Z,100466.66
2023-01-13T23:47:49.964Z,100461.52
2023-01-13T23:50:21.895Z,100461.52
2023-01-13T23:52:54.105Z,100462.39
2023-01-13T23:55:26.962Z,100464.12
2023-01-13T23:57:58.925Z,100462.38
